Panama, New York
Current Conditions -  °F | °C
As of 6:35 PM on Tuesday 25 Nov 2014 (Local Time) from KJHW Reporting Station
Overcast Overcast  
Wind Chill: 25°   Ceiling: 2500
Heat Index: 34°   Visibility: 10mi
Dew Point: 23°   Wind: 13mph
Humidity: 65%   Direction: 240°WSW
Pressure: 30.07"   Gusts: NA
Location:  42.08°N, 79.48°W
Report Text: KJHW 252335Z 24011KT 10SM OVC025 01/M05 A3007 RMK AO1
Loading
Personal Weather Stations






























Interactive Weather Map New forecast layout! Learn more

10-Day Weather Forecast

Advertisements
Track Severe Weather on mobile